createdAt,value
2023-03-06T00:00:46.745Z,95727.09
2023-03-06T00:03:13.243Z,95722.84
2023-03-06T00:05:39.953Z,95725.59
2023-03-06T00:08:06.601Z,95728.06
2023-03-06T00:10:33.568Z,95722.97
2023-03-06T00:13:02.634Z,95709.25
2023-03-06T00:15:29.620Z,95718.09
2023-03-06T00:17:56.364Z,95720.19
2023-03-06T00:20:23.406Z,95719.06
2023-03-06T00:22:50.117Z,95707.28
2023-03-06T00:25:19.272Z,95705.88
2023-03-06T00:27:45.852Z,95703.03
2023-03-06T00:30:16.401Z,95703.31
2023-03-06T00:32:43.376Z,95696.72
2023-03-06T00:35:10.726Z,95696.59
2023-03-06T00:37:37.082Z,95685.59
2023-03-06T00:40:08.416Z,95691.13
2023-03-06T00:42:34.846Z,95690.91
2023-03-06T00:45:01.305Z,95701.06
2023-03-06T00:47:27.765Z,95687.16
2023-03-06T00:49:54.130Z,95688.59
2023-03-06T00:52:20.587Z,95686.97
2023-03-06T00:54:46.972Z,95678.16
2023-03-06T00:57:13.367Z,95675.59
2023-03-06T00:59:39.714Z,95674.00
2023-03-06T01:02:06.639Z,95675.66
2023-03-06T01:04:33.071Z,95673.28
2023-03-06T01:06:59.542Z,95664.63
2023-03-06T01:09:26.126Z,95650.09
2023-03-06T01:11:52.448Z,95650.09
2023-03-06T01:14:21.801Z,95647.34
2023-03-06T01:16:48.927Z,95642.84
2023-03-06T01:19:15.321Z,95627.19
2023-03-06T01:21:41.730Z,95629.63
2023-03-06T01:24:08.356Z,95621.44
2023-03-06T01:26:34.889Z,95626.44
2023-03-06T01:29:01.617Z,95620.78
2023-03-06T01:31:28.385Z,95612.88
2023-03-06T01:33:54.937Z,95614.34
2023-03-06T01:36:21.332Z,95607.28
2023-03-06T01:38:47.725Z,95613.25
2023-03-06T01:41:17.184Z,95605.66
2023-03-06T01:43:46.177Z,95602.56
2023-03-06T01:46:21.692Z,95599.78
2023-03-06T01:48:50.230Z,95599.28
2023-03-06T01:51:16.972Z,95590.16
2023-03-06T01:53:43.862Z,95587.75
2023-03-06T01:56:13.222Z,95599.19
2023-03-06T01:58:43.517Z,95596.31
2023-03-06T02:01:12.910Z,95585.34
2023-03-06T02:03:41.313Z,95583.97
2023-03-06T02:06:08.801Z,95592.00
2023-03-06T02:08:35.472Z,95588.44
2023-03-06T02:11:09.427Z,95581.72
2023-03-06T02:13:37.055Z,95576.84
2023-03-06T02:16:03.729Z,95578.69
2023-03-06T02:18:31.918Z,95562.53
2023-03-06T02:21:02.450Z,95565.81
2023-03-06T02:23:48.834Z,95566.16
2023-03-06T02:26:16.163Z,95564.72
2023-03-06T02:28:42.636Z,95556.44
2023-03-06T02:31:21.990Z,95547.00
2023-03-06T02:34:01.146Z,95539.31
2023-03-06T02:36:28.682Z,95543.84
2023-03-06T02:38:55.243Z,95542.06
2023-03-06T02:41:21.742Z,95538.44
2023-03-06T02:43:51.166Z,95532.50
2023-03-06T02:46:17.760Z,95540.03
2023-03-06T02:48:44.420Z,95535.78
2023-03-06T02:51:10.806Z,95540.78
2023-03-06T02:53:37.130Z,95533.66
2023-03-06T02:56:03.550Z,95546.38
2023-03-06T02:58:29.899Z,95541.91
2023-03-06T03:00:56.276Z,95538.91
2023-03-06T03:03:22.726Z,95537.88
2023-03-06T03:05:49.109Z,95530.59
2023-03-06T03:08:15.884Z,95525.84
2023-03-06T03:10:42.285Z,95518.44
2023-03-06T03:13:08.699Z,95524.91
2023-03-06T03:15:35.140Z,95522.31
2023-03-06T03:18:01.544Z,95523.94
2023-03-06T03:20:27.865Z,95537.56
2023-03-06T03:22:55.341Z,95524.91
2023-03-06T03:25:23.766Z,95531.44
2023-03-06T03:27:50.211Z,95522.69
2023-03-06T03:30:17.289Z,95525.16
2023-03-06T03:32:43.649Z,95520.78
2023-03-06T03:35:11.081Z,95516.69
2023-03-06T03:37:38.011Z,95525.16
2023-03-06T03:40:06.538Z,95520.47
2023-03-06T03:42:32.925Z,95520.47
2023-03-06T03:45:00.887Z,95510.31
2023-03-06T03:47:27.265Z,95512.00
2023-03-06T03:49:53.632Z,95505.38
2023-03-06T03:52:20.006Z,95509.66
2023-03-06T03:54:46.388Z,95506.66
2023-03-06T03:57:12.752Z,95506.19
2023-03-06T03:59:39.115Z,95509.66
2023-03-06T04:02:05.580Z,95515.19
2023-03-06T04:04:31.992Z,95515.78
2023-03-06T04:06:58.408Z,95501.25
2023-03-06T04:09:24.799Z,95500.88
2023-03-06T04:11:51.174Z,95502.97
2023-03-06T04:14:17.652Z,95499.81
2023-03-06T04:16:44.104Z,95493.00
2023-03-06T04:19:11.553Z,95498.84
2023-03-06T04:21:37.962Z,95490.25
2023-03-06T04:24:04.737Z,95497.81
2023-03-06T04:26:31.093Z,95495.13
2023-03-06T04:28:58.425Z,95492.19
2023-03-06T04:31:24.915Z,95501.09
2023-03-06T04:33:51.312Z,95493.69
2023-03-06T04:36:29.206Z,95489.38
2023-03-06T04:38:56.124Z,95491.28
2023-03-06T04:41:23.318Z,95493.13
2023-03-06T04:43:50.337Z,95491.25
2023-03-06T04:46:17.213Z,95490.97
2023-03-06T04:48:45.233Z,95485.44
2023-03-06T04:51:13.384Z,95494.03
2023-03-06T04:53:39.949Z,95494.84
2023-03-06T04:56:06.973Z,95496.47
2023-03-06T04:58:33.476Z,95493.78
2023-03-06T05:00:59.836Z,95492.88
2023-03-06T05:03:26.301Z,95501.56
2023-03-06T05:05:52.685Z,95495.94
2023-03-06T05:08:19.128Z,95495.78
2023-03-06T05:10:46.196Z,95490.09
2023-03-06T05:13:12.732Z,95496.31
2023-03-06T05:15:42.041Z,95490.97
2023-03-06T05:18:08.537Z,95493.84
2023-03-06T05:20:34.997Z,95485.53
2023-03-06T05:23:01.681Z,95486.44
2023-03-06T05:25:28.017Z,95486.84
2023-03-06T05:27:54.346Z,95487.22
2023-03-06T05:30:23.015Z,95488.81
2023-03-06T05:32:49.664Z,95498.06
2023-03-06T05:35:18.783Z,95497.38
2023-03-06T05:37:45.909Z,95500.63
2023-03-06T05:40:13.167Z,95496.13
2023-03-06T05:42:39.611Z,95498.53
2023-03-06T05:45:06.529Z,95495.16
2023-03-06T05:47:33.253Z,95502.31
2023-03-06T05:49:59.886Z,95496.31
2023-03-06T05:52:26.233Z,95498.34
2023-03-06T05:54:54.384Z,95502.16
2023-03-06T05:57:22.730Z,95507.91
2023-03-06T05:59:50.250Z,95521.78
2023-03-06T06:02:17.754Z,95517.94
2023-03-06T06:04:45.437Z,95521.00
2023-03-06T06:07:15.877Z,95527.75
2023-03-06T06:09:45.213Z,95525.53
2023-03-06T06:12:12.146Z,95526.31
2023-03-06T06:14:38.493Z,95526.59
2023-03-06T06:17:05.313Z,95524.66
2023-03-06T06:19:31.753Z,95519.88
2023-03-06T06:21:58.522Z,95526.22
2023-03-06T06:24:26.225Z,95527.69
2023-03-06T06:26:54.749Z,95533.81
2023-03-06T06:29:22.051Z,95533.78
2023-03-06T06:31:48.816Z,95539.59
2023-03-06T06:34:15.289Z,95537.44
2023-03-06T06:36:41.844Z,95530.47
2023-03-06T06:39:09.069Z,95534.13
2023-03-06T06:41:54.868Z,95544.78
2023-03-06T06:44:21.961Z,95536.56
2023-03-06T06:49:36.438Z,95538.78
2023-03-06T06:52:03.029Z,95543.16
2023-03-06T06:54:29.480Z,95544.56
2023-03-06T06:56:55.813Z,95551.63
2023-03-06T06:59:23.558Z,95542.34
2023-03-06T07:01:52.967Z,95544.09
2023-03-06T07:04:20.020Z,95549.16
2023-03-06T07:06:46.737Z,95550.22
2023-03-06T07:09:13.754Z,95543.53
2023-03-06T07:11:40.964Z,95554.91
2023-03-06T07:14:07.309Z,95549.44
2023-03-06T07:16:34.125Z,95546.19
2023-03-06T07:19:00.574Z,95546.41
2023-03-06T07:21:26.968Z,95548.88
2023-03-06T07:23:54.219Z,95546.06
2023-03-06T07:26:20.563Z,95546.13
2023-03-06T07:28:52.771Z,95541.41
2023-03-06T07:31:25.623Z,95543.66
2023-03-06T07:33:53.855Z,95539.53
2023-03-06T07:36:21.196Z,95531.34
2023-03-06T07:38:47.624Z,95538.41
2023-03-06T07:41:16.216Z,95544.50
2023-03-06T07:43:44.223Z,95545.44
2023-03-06T07:46:12.642Z,95547.81
2023-03-06T07:48:40.088Z,95550.41
2023-03-06T07:51:12.026Z,95557.19
2023-03-06T07:53:38.368Z,95557.84
2023-03-06T07:56:08.742Z,95563.03
2023-03-06T07:58:36.724Z,95565.03
2023-03-06T08:01:05.018Z,95568.69
2023-03-06T08:03:31.437Z,95566.44
2023-03-06T08:06:11.654Z,95568.25
2023-03-06T08:08:40.261Z,95568.22
2023-03-06T08:11:07.942Z,95576.66
2023-03-06T08:13:34.796Z,95571.78
2023-03-06T08:16:01.329Z,95583.13
2023-03-06T08:18:27.966Z,95585.59
2023-03-06T08:21:15.899Z,95579.69
2023-03-06T08:23:43.366Z,95575.47
2023-03-06T08:26:15.456Z,95588.97
2023-03-06T08:28:42.711Z,95589.25
2023-03-06T08:31:12.919Z,95595.72
2023-03-06T08:33:40.395Z,95603.91
2023-03-06T08:36:07.244Z,95605.09
2023-03-06T08:38:33.569Z,95604.84
2023-03-06T08:40:59.872Z,95596.53
2023-03-06T08:43:26.248Z,95596.16
2023-03-06T08:45:53.822Z,95595.63
2023-03-06T08:48:20.427Z,95596.53
2023-03-06T08:50:47.993Z,95595.72
2023-03-06T08:53:14.510Z,95593.97
2023-03-06T08:55:40.933Z,95592.06
2023-03-06T08:58:07.292Z,95595.72
2023-03-06T09:00:33.700Z,95596.31
2023-03-06T09:03:00.199Z,95594.84
2023-03-06T09:05:26.592Z,95597.19
2023-03-06T09:07:53.244Z,95597.78
2023-03-06T09:10:22.793Z,95602.44
2023-03-06T09:12:52.477Z,95606.00
2023-03-06T09:15:21.881Z,95607.31
2023-03-06T09:17:48.294Z,95606.75
2023-03-06T09:20:15.191Z,95609.72
2023-03-06T09:22:45.557Z,95607.47
2023-03-06T09:25:20.132Z,95602.13
2023-03-06T09:27:53.425Z,95602.28
2023-03-06T09:30:28.386Z,95607.09
2023-03-06T09:32:54.727Z,95605.84
2023-03-06T09:35:21.081Z,95608.06
2023-03-06T09:37:48.711Z,95609.84
2023-03-06T09:41:04.796Z,95611.72
2023-03-06T09:43:42.537Z,95621.50
2023-03-06T09:46:36.284Z,95607.94
2023-03-06T09:49:16.089Z,95614.06
2023-03-06T09:52:14.876Z,95610.75
2023-03-06T09:54:56.894Z,95607.09
2023-03-06T09:57:30.649Z,95606.75
2023-03-06T10:00:04.573Z,95597.81
2023-03-06T10:02:53.411Z,95597.78
2023-03-06T10:05:25.993Z,95590.22
2023-03-06T10:08:03.359Z,95589.25
2023-03-06T10:10:44.869Z,95590.22
2023-03-06T10:13:40.983Z,95580.56
2023-03-06T10:16:15.483Z,95586.66
2023-03-06T10:18:41.938Z,95588.94
2023-03-06T10:21:29.847Z,95591.44
2023-03-06T10:24:18.101Z,95583.28
2023-03-06T10:27:26.682Z,95592.22
2023-03-06T10:30:11.198Z,95589.75
2023-03-06T10:33:00.526Z,95580.78
2023-03-06T10:35:48.131Z,95579.75
2023-03-06T10:38:24.829Z,95581.44
2023-03-06T10:41:13.165Z,95583.34
2023-03-06T10:43:44.692Z,95579.13
2023-03-06T10:46:27.329Z,95574.97
2023-03-06T10:48:59.328Z,95574.38
2023-03-06T10:51:27.005Z,95579.06
2023-03-06T10:53:55.108Z,95574.41
2023-03-06T10:56:32.082Z,95574.44
2023-03-06T10:59:07.472Z,95580.44
2023-03-06T11:01:34.400Z,95579.84
2023-03-06T11:04:28.836Z,95583.28
2023-03-06T11:07:16.183Z,95578.88
2023-03-06T11:10:19.357Z,95582.06
2023-03-06T11:12:59.546Z,95572.66
2023-03-06T11:15:28.174Z,95575.34
2023-03-06T11:18:05.100Z,95576.75
2023-03-06T11:20:48.544Z,95578.69
2023-03-06T11:23:21.778Z,95582.94
2023-03-06T11:25:50.336Z,95574.94
2023-03-06T11:28:31.576Z,95572.34
2023-03-06T11:31:08.487Z,95573.38
2023-03-06T11:33:54.092Z,95570.63
2023-03-06T11:36:41.324Z,95571.53
2023-03-06T11:39:34.144Z,95563.34
2023-03-06T11:42:12.493Z,95567.00
2023-03-06T11:45:11.141Z,95559.25
2023-03-06T11:47:54.196Z,95553.09
2023-03-06T11:50:37.426Z,95555.34
2023-03-06T11:53:06.484Z,95550.13
2023-03-06T11:55:51.259Z,95549.44
2023-03-06T11:58:36.115Z,95536.56
2023-03-06T12:01:24.176Z,95538.78
2023-03-06T12:04:00.812Z,95539.13
2023-03-06T12:06:34.898Z,95546.75
2023-03-06T12:09:14.108Z,95535.88
2023-03-06T12:12:10.264Z,95530.31
2023-03-06T12:14:59.940Z,95531.22
2023-03-06T12:18:00.356Z,95519.28
2023-03-06T12:20:53.291Z,95527.19
2023-03-06T12:23:25.451Z,95531.16
2023-03-06T12:26:16.699Z,95523.34
2023-03-06T12:28:50.276Z,95529.56
2023-03-06T12:31:35.961Z,95524.38
2023-03-06T12:34:29.954Z,95528.72
2023-03-06T12:37:15.377Z,95524.41
2023-03-06T12:39:50.818Z,95524.97
2023-03-06T12:42:51.237Z,95522.00
2023-03-06T12:45:37.943Z,95508.22
2023-03-06T12:48:25.666Z,95516.91
2023-03-06T12:50:52.554Z,95510.06
2023-03-06T12:53:27.486Z,95499.41
2023-03-06T12:55:54.695Z,95503.88
2023-03-06T12:58:30.137Z,95503.47
2023-03-06T13:01:36.566Z,95506.38
2023-03-06T13:04:24.987Z,95496.34
2023-03-06T13:07:22.745Z,95495.59
2023-03-06T13:10:05.564Z,95492.59
2023-03-06T13:12:43.777Z,95493.66
2023-03-06T13:15:33.610Z,95485.88
2023-03-06T13:18:00.503Z,95491.34
2023-03-06T13:20:34.929Z,95496.75
2023-03-06T13:23:29.406Z,95510.75
2023-03-06T13:26:01.859Z,95496.94
2023-03-06T13:28:45.016Z,95488.16
2023-03-06T13:31:26.343Z,95500.19
2023-03-06T13:33:56.584Z,95487.41
2023-03-06T13:36:39.601Z,95483.34
2023-03-06T13:39:10.765Z,95476.50
2023-03-06T13:41:52.547Z,95481.94
2023-03-06T13:44:24.862Z,95484.97
2023-03-06T13:47:20.299Z,95477.69
2023-03-06T13:49:48.227Z,95491.56
2023-03-06T13:52:31.484Z,95479.47
2023-03-06T13:55:27.457Z,95463.69
2023-03-06T13:58:12.551Z,95480.97
2023-03-06T14:00:54.107Z,95476.75
2023-03-06T14:03:26.372Z,95489.56
2023-03-06T14:05:52.902Z,95472.34
2023-03-06T14:08:24.496Z,95474.28
2023-03-06T14:11:19.400Z,95472.97
2023-03-06T14:13:52.648Z,95465.38
2023-03-06T14:16:25.226Z,95459.66
2023-03-06T14:18:55.004Z,95457.50
2023-03-06T14:21:47.653Z,95473.50
2023-03-06T14:24:19.887Z,95461.81
2023-03-06T14:26:49.584Z,95466.31
2023-03-06T14:29:27.360Z,95461.53
2023-03-06T14:31:56.510Z,95458.94
2023-03-06T14:34:28.708Z,95468.41
2023-03-06T14:36:59.785Z,95452.50
2023-03-06T14:39:40.071Z,95461.59
2023-03-06T14:42:24.685Z,95448.53
2023-03-06T14:45:21.140Z,95450.09
2023-03-06T14:47:52.333Z,95443.75
2023-03-06T14:50:23.165Z,95448.25
2023-03-06T14:53:04.228Z,95442.22
2023-03-06T14:55:33.220Z,95442.44
2023-03-06T14:58:05.359Z,95444.72
2023-03-06T15:00:41.297Z,95452.75
2023-03-06T15:03:16.340Z,95446.41
2023-03-06T15:05:45.276Z,95450.78
2023-03-06T15:08:17.632Z,95436.06
2023-03-06T15:10:58.686Z,95447.47
2023-03-06T15:13:27.520Z,95446.66
2023-03-06T15:16:30.676Z,95448.03
2023-03-06T15:19:04.028Z,95443.44
2023-03-06T15:21:36.837Z,95450.47
2023-03-06T15:24:34.102Z,95446.88
2023-03-06T15:27:04.026Z,95442.09
2023-03-06T15:29:31.033Z,95447.47
2023-03-06T15:32:34.541Z,95447.56
2023-03-06T15:35:26.572Z,95436.81
2023-03-06T15:37:53.291Z,95439.59
2023-03-06T15:40:22.173Z,95441.25
2023-03-06T15:42:51.571Z,95437.38
2023-03-06T15:45:23.339Z,95438.97
2023-03-06T15:47:52.451Z,95429.22
2023-03-06T15:50:25.167Z,95425.78
2023-03-06T15:52:52.104Z,95442.09
2023-03-06T15:55:22.313Z,95426.69
2023-03-06T15:57:55.303Z,95423.94
2023-03-06T16:00:28.326Z,95431.66
2023-03-06T16:02:56.571Z,95430.69
2023-03-06T16:05:23.804Z,95428.44
2023-03-06T16:07:50.681Z,95417.66
2023-03-06T16:10:20.393Z,95425.75
2023-03-06T16:12:53.889Z,95426.59
2023-03-06T16:15:22.987Z,95432.78
2023-03-06T16:17:49.429Z,95431.59
2023-03-06T16:20:18.193Z,95431.28
2023-03-06T16:22:49.652Z,95437.31
2023-03-06T16:25:17.805Z,95429.38
2023-03-06T16:27:50.530Z,95426.31
2023-03-06T16:30:18.847Z,95429.88
2023-03-06T16:32:45.923Z,95433.09
2023-03-06T16:35:13.002Z,95435.34
2023-03-06T16:37:40.290Z,95438.31
2023-03-06T16:40:28.906Z,95429.78
2023-03-06T16:42:55.782Z,95432.13
2023-03-06T16:45:23.162Z,95435.00
2023-03-06T16:47:49.561Z,95442.22
2023-03-06T16:50:26.022Z,95444.72
2023-03-06T16:52:54.380Z,95447.38
2023-03-06T16:55:21.064Z,95455.78
2023-03-06T16:57:47.733Z,95450.19
2023-03-06T17:00:15.769Z,95462.31
2023-03-06T17:02:47.553Z,95453.44
2023-03-06T17:05:14.684Z,95458.66
2023-03-06T17:07:41.220Z,95462.81
2023-03-06T17:10:10.970Z,95454.03
2023-03-06T17:12:37.305Z,95454.78
2023-03-06T17:15:05.536Z,95466.53
2023-03-06T17:17:32.347Z,95463.94
2023-03-06T17:19:58.942Z,95465.59
2023-03-06T17:22:27.290Z,95472.63
2023-03-06T17:24:54.276Z,95473.75
2023-03-06T17:27:22.133Z,95476.63
2023-03-06T17:29:48.556Z,95485.09
2023-03-06T17:32:15.096Z,95478.06
2023-03-06T17:34:41.630Z,95480.94
2023-03-06T17:37:08.039Z,95478.84
2023-03-06T17:39:36.814Z,95483.72
2023-03-06T17:42:04.601Z,95485.97
2023-03-06T17:44:32.484Z,95484.25
2023-03-06T17:46:59.216Z,95486.47
2023-03-06T17:49:25.606Z,95501.63
2023-03-06T17:51:52.424Z,95499.63
2023-03-06T17:54:19.550Z,95511.16
2023-03-06T17:56:46.216Z,95504.97
2023-03-06T17:59:12.601Z,95502.69
2023-03-06T18:01:38.948Z,95506.38
2023-03-06T18:04:05.510Z,95500.75
2023-03-06T18:06:33.441Z,95506.53
2023-03-06T18:09:00.639Z,95506.13
2023-03-06T18:11:27.917Z,95497.97
2023-03-06T18:13:54.356Z,95498.66
2023-03-06T18:16:23.624Z,95507.00
2023-03-06T18:18:54.755Z,95511.81
2023-03-06T18:21:24.656Z,95518.47
2023-03-06T18:23:51.199Z,95516.84
2023-03-06T18:26:21.757Z,95525.13
2023-03-06T18:28:52.131Z,95515.31
2023-03-06T18:31:24.217Z,95510.38
2023-03-06T18:33:52.634Z,95520.41
2023-03-06T18:36:20.897Z,95520.69
2023-03-06T18:38:47.926Z,95516.31
2023-03-06T18:41:14.466Z,95514.81
2023-03-06T18:43:40.836Z,95524.75
2023-03-06T18:46:07.606Z,95518.72
2023-03-06T18:48:34.056Z,95518.41
2023-03-06T18:51:09.176Z,95525.81
2023-03-06T18:53:36.203Z,95527.59
2023-03-06T18:56:03.374Z,95528.28
2023-03-06T18:58:29.777Z,95532.19
2023-03-06T19:00:58.334Z,95530.69
2023-03-06T19:03:25.630Z,95534.84
2023-03-06T19:05:52.141Z,95538.31
2023-03-06T19:08:18.849Z,95549.78
2023-03-06T19:10:47.214Z,95544.78
2023-03-06T19:13:13.862Z,95546.59
2023-03-06T19:15:48.208Z,95536.03
2023-03-06T19:18:16.930Z,95524.28
2023-03-06T19:20:44.647Z,95541.97
2023-03-06T19:23:11.315Z,95535.72
2023-03-06T19:25:37.741Z,95535.63
2023-03-06T19:28:04.395Z,95539.63
2023-03-06T19:30:30.866Z,95541.69
2023-03-06T19:32:57.350Z,95541.47
2023-03-06T19:35:24.864Z,95534.50
2023-03-06T19:37:51.841Z,95542.13
2023-03-06T19:40:18.709Z,95540.22
2023-03-06T19:42:45.307Z,95543.19
2023-03-06T19:45:11.964Z,95548.28
2023-03-06T19:47:38.399Z,95546.16
2023-03-06T19:50:05.049Z,95534.56
2023-03-06T19:52:31.424Z,95540.22
2023-03-06T19:54:57.738Z,95539.56
2023-03-06T19:57:24.078Z,95539.78
2023-03-06T19:59:51.274Z,95538.31
2023-03-06T20:02:19.516Z,95536.00
2023-03-06T20:04:46.695Z,95550.09
2023-03-06T20:07:13.063Z,95549.25
2023-03-06T20:09:39.414Z,95540.97
2023-03-06T20:12:08.215Z,95535.94
2023-03-06T20:14:34.752Z,95540.56
2023-03-06T20:17:01.068Z,95533.38
2023-03-06T20:19:27.579Z,95533.63
2023-03-06T20:21:53.993Z,95537.91
2023-03-06T20:24:20.406Z,95535.88
2023-03-06T20:26:48.816Z,95531.72
2023-03-06T20:29:15.151Z,95534.22
2023-03-06T20:31:41.718Z,95533.72
2023-03-06T20:34:08.101Z,95539.59
2023-03-06T20:36:37.065Z,95543.28
2023-03-06T20:39:05.938Z,95543.81
2023-03-06T20:41:32.923Z,95541.69
2023-03-06T20:44:00.817Z,95536.94
2023-03-06T20:46:27.483Z,95532.81
2023-03-06T20:48:54.774Z,95527.53
2023-03-06T20:51:30.102Z,95527.63
2023-03-06T20:53:56.517Z,95538.75
2023-03-06T20:56:25.856Z,95532.09
2023-03-06T20:58:52.921Z,95531.59
2023-03-06T21:01:24.134Z,95532.09
2023-03-06T21:03:51.070Z,95528.38
2023-03-06T21:06:18.046Z,95532.50
2023-03-06T21:08:44.669Z,95532.28
2023-03-06T21:11:11.288Z,95526.16
2023-03-06T21:13:37.923Z,95525.81
2023-03-06T21:16:10.217Z,95523.13
2023-03-06T21:18:36.571Z,95524.03
2023-03-06T21:21:07.513Z,95521.81
2023-03-06T21:23:33.840Z,95524.13
2023-03-06T21:26:00.185Z,95526.72
2023-03-06T21:28:26.865Z,95511.00
2023-03-06T21:30:53.363Z,95529.19
2023-03-06T21:33:19.709Z,95521.69
2023-03-06T21:35:46.876Z,95515.75
2023-03-06T21:38:14.035Z,95520.75
2023-03-06T21:40:40.995Z,95511.25
2023-03-06T21:43:07.332Z,95510.31
2023-03-06T21:45:33.680Z,95518.47
2023-03-06T21:48:00.655Z,95507.44
2023-03-06T21:50:27.597Z,95512.00
2023-03-06T21:52:56.133Z,95510.81
2023-03-06T21:55:22.907Z,95499.13
2023-03-06T21:57:50.856Z,95496.81
2023-03-06T22:00:19.282Z,95494.69
2023-03-06T22:02:46.652Z,95493.84
2023-03-06T22:05:13.487Z,95503.25
2023-03-06T22:07:39.892Z,95502.56
2023-03-06T22:10:09.254Z,95499.56
2023-03-06T22:12:36.308Z,95500.47
2023-03-06T22:15:02.685Z,95496.94
2023-03-06T22:17:30.378Z,95486.78
2023-03-06T22:19:56.756Z,95496.13
2023-03-06T22:22:23.379Z,95497.69
2023-03-06T22:24:49.722Z,95494.03
2023-03-06T22:27:16.645Z,95498.84
2023-03-06T22:29:43.235Z,95488.63
2023-03-06T22:32:09.676Z,95486.94
2023-03-06T22:34:36.096Z,95496.84
2023-03-06T22:37:02.438Z,95495.72
2023-03-06T22:39:28.769Z,95491.91
2023-03-06T22:41:55.727Z,95500.03
2023-03-06T22:44:22.484Z,95492.84
2023-03-06T22:46:48.872Z,95497.69
2023-03-06T22:49:16.724Z,95499.69
2023-03-06T22:51:43.516Z,95491.13
2023-03-06T22:54:10.066Z,95494.66
2023-03-06T22:56:36.631Z,95485.69
2023-03-06T22:59:04.251Z,95481.44
2023-03-06T23:01:33.291Z,95483.34
2023-03-06T23:04:02.207Z,95487.44
2023-03-06T23:06:33.968Z,95490.06
2023-03-06T23:09:04.176Z,95483.44
2023-03-06T23:11:31.461Z,95484.75
2023-03-06T23:13:58.263Z,95483.69
2023-03-06T23:16:25.064Z,95484.50
2023-03-06T23:18:52.982Z,95475.34
2023-03-06T23:21:22.095Z,95481.78
2023-03-06T23:23:50.715Z,95478.63
2023-03-06T23:26:18.910Z,95471.56
2023-03-06T23:28:45.372Z,95480.03
2023-03-06T23:31:15.887Z,95469.19
2023-03-06T23:33:42.439Z,95468.47
2023-03-06T23:36:13.875Z,95467.28
2023-03-06T23:38:40.904Z,95471.69
2023-03-06T23:41:12.720Z,95481.44
2023-03-06T23:43:39.677Z,95476.28
2023-03-06T23:46:07.128Z,95480.03
2023-03-06T23:48:35.323Z,95473.22
2023-03-06T23:51:08.478Z,95473.44
2023-03-06T23:53:35.321Z,95473.44
2023-03-06T23:56:07.472Z,95484.13
2023-03-06T23:58:34.181Z,95471.31
